Time;durP1;ratioP1;P1;durP2;ratioP2;P2;SDS_P1;SDS_P2;PMS_P1;PMS_P2;Temp;Humidity;BMP_temperature;BMP_pressure;BME280_temperature;BME280_humidity;BME280_pressure;Samples;Min_cycle;Max_cycle;Signal;HPM_P1;HPM_P2
2021/12/22 00:01:51;;;;;;;21.80;6.70;;;-3.10;99.90;;;;;;4980974;28;20030;-85
2021/12/22 00:04:23;;;;;;;12.20;5.10;;;-3.10;99.90;;;;;;5021090;28;20021;-84
2021/12/22 00:06:48;;;;;;;13.05;6.07;;;-3.10;99.90;;;;;;5016635;28;20029;-85
2021/12/22 00:09:14;;;;;;;14.57;6.07;;;-3.20;99.90;;;;;;5029746;28;20124;-85
2021/12/22 00:11:40;;;;;;;21.33;7.20;;;-3.20;99.90;;;;;;5013256;28;20057;-86
2021/12/22 00:14:06;;;;;;;16.75;6.25;;;-3.30;99.90;;;;;;5013519;28;20072;-86
2021/12/22 00:16:32;;;;;;;16.83;6.35;;;-3.30;99.90;;;;;;5012452;28;20025;-86
2021/12/22 00:18:58;;;;;;;18.30;6.97;;;-3.30;99.90;;;;;;5013344;28;20044;-86
2021/12/22 00:21:24;;;;;;;15.50;6.90;;;-3.30;99.90;;;;;;5063573;28;20139;-86
2021/12/22 00:23:49;;;;;;;25.98;7.63;;;-3.30;99.90;;;;;;5020825;28;20029;-85
2021/12/22 00:26:16;;;;;;;19.23;6.10;;;-3.30;99.90;;;;;;5014718;28;20403;-86
2021/12/22 00:28:44;;;;;;;17.48;6.88;;;-3.30;99.90;;;;;;5036920;28;20041;-86
2021/12/22 00:31:13;;;;;;;12.60;6.50;;;-3.30;99.90;;;;;;5051119;28;20039;-85
2021/12/22 00:33:47;;;;;;;15.43;5.88;;;-3.30;99.90;;;;;;5013652;28;20021;-86
2021/12/22 00:36:14;;;;;;;21.55;7.18;;;-3.30;99.90;;;;;;4997735;28;20045;-85
2021/12/22 00:38:40;;;;;;;12.38;5.95;;;-3.30;99.90;;;;;;5030919;28;20080;-87
2021/12/22 00:41:06;;;;;;;13.80;6.30;;;-3.30;99.90;;;;;;5049751;28;20024;-86
2021/12/22 00:43:35;;;;;;;17.15;7.68;;;-3.30;99.90;;;;;;5032761;28;20044;-86
2021/12/22 00:46:00;;;;;;;18.52;7.38;;;-3.30;99.90;;;;;;4999355;28;20040;-86
2021/12/22 00:48:26;;;;;;;19.85;6.90;;;-3.40;99.90;;;;;;5055943;28;20025;-86
2021/12/22 00:50:52;;;;;;;17.92;7.47;;;-3.40;99.90;;;;;;5019896;28;20103;-85
2021/12/22 00:53:18;;;;;;;18.77;7.70;;;-3.50;99.90;;;;;;4988586;28;20072;-86
2021/12/22 00:55:48;;;;;;;13.80;6.15;;;-3.60;99.90;;;;;;5000078;28;20055;-85
2021/12/22 00:58:14;;;;;;;15.55;5.95;;;-3.60;99.90;;;;;;5017370;28;20451;-87
2021/12/22 01:00:40;;;;;;;17.88;7.03;;;-3.70;99.90;;;;;;5013105;28;20029;-85
2021/12/22 01:03:05;;;;;;;16.45;6.55;;;-3.70;99.90;;;;;;5013508;28;20050;-85
2021/12/22 01:05:32;;;;;;;18.77;7.28;;;-3.80;99.90;;;;;;4996204;28;20088;-86
2021/12/22 01:07:57;;;;;;;14.38;6.47;;;-3.80;99.90;;;;;;5050907;28;20029;-86
2021/12/22 01:10:29;;;;;;;20.13;7.20;;;-3.80;99.90;;;;;;5035979;28;20051;-84
2021/12/22 01:12:57;;;;;;;18.45;7.22;;;-3.80;99.90;;;;;;5021763;28;20543;-86
2021/12/22 01:15:24;;;;;;;21.65;7.25;;;-3.80;99.90;;;;;;5012215;28;20033;-87
2021/12/22 01:17:58;;;;;;;25.50;8.45;;;-3.80;99.90;;;;;;5036763;28;20120;-84
2021/12/22 01:20:30;;;;;;;17.88;8.23;;;-3.80;99.90;;;;;;5013614;28;20500;-85
2021/12/22 01:23:06;;;;;;;17.88;8.10;;;-3.80;99.90;;;;;;5012757;28;20025;-86
2021/12/22 01:25:42;;;;;;;19.02;7.22;;;-3.80;99.90;;;;;;5006361;28;20109;-86
2021/12/22 01:28:08;;;;;;;20.00;7.05;;;-3.80;99.90;;;;;;4997607;28;20030;-86
2021/12/22 01:30:36;;;;;;;15.50;7.45;;;-3.80;99.90;;;;;;5026060;28;20025;-84
2021/12/22 01:33:03;;;;;;;21.05;6.38;;;-3.80;99.90;;;;;;5054934;28;20485;-85
2021/12/22 01:35:31;;;;;;;18.00;7.65;;;-3.80;99.90;;;;;;5048682;28;20029;-85
2021/12/22 01:37:57;;;;;;;15.05;7.65;;;-3.80;99.90;;;;;;5035817;28;20029;-85
2021/12/22 01:40:23;;;;;;;21.45;7.90;;;-3.80;99.90;;;;;;4999347;28;20033;-85
2021/12/22 01:42:50;;;;;;;16.02;8.63;;;-3.80;99.90;;;;;;5016101;28;20032;-86
2021/12/22 01:45:29;;;;;;;21.38;9.50;;;-3.90;99.90;;;;;;4989134;28;20037;-85
2021/12/22 01:50:51;;;;;;;16.38;7.10;;;-3.90;99.90;;;;;;5072666;28;20093;-85
2021/12/22 01:53:22;;;;;;;23.17;7.63;;;-3.90;99.90;;;;;;5028750;28;20026;-86
2021/12/22 01:56:30;;;;;;;19.98;7.97;;;-4.00;99.90;;;;;;5015435;28;20021;-85
2021/12/22 01:59:00;;;;;;;19.10;6.57;;;-4.00;99.90;;;;;;5051605;28;20064;-84
2021/12/22 02:01:28;;;;;;;18.13;7.13;;;-4.00;99.90;;;;;;5038863;28;20036;-85
2021/12/22 02:03:54;;;;;;;15.90;6.65;;;-4.00;99.90;;;;;;5044642;28;20048;-86
2021/12/22 02:06:21;;;;;;;17.25;6.85;;;-4.00;99.90;;;;;;5018360;28;20095;-85
2021/12/22 02:08:47;;;;;;;14.73;6.65;;;-4.00;99.90;;;;;;5027067;28;20021;-85
2021/12/22 02:11:15;;;;;;;16.17;6.63;;;-4.00;99.90;;;;;;5031441;28;20076;-86
2021/12/22 02:13:45;;;;;;;14.63;6.28;;;-4.00;99.90;;;;;;5041993;28;20033;-86
2021/12/22 02:16:14;;;;;;;17.20;5.70;;;-4.00;99.90;;;;;;5054596;28;20025;-86
2021/12/22 02:18:46;;;;;;;14.27;6.38;;;-4.00;99.90;;;;;;5025871;28;20056;-85
2021/12/22 02:21:12;;;;;;;12.90;6.28;;;-4.00;99.90;;;;;;4999979;28;20052;-84
2021/12/22 02:23:42;;;;;;;15.25;5.85;;;-4.00;99.90;;;;;;5001303;28;20065;-85
2021/12/22 02:26:16;;;;;;;12.50;5.00;;;-4.00;99.90;;;;;;5042946;28;20021;-85
2021/12/22 02:28:49;;;;;;;13.77;6.45;;;-4.10;99.90;;;;;;5066252;28;20087;-84
2021/12/22 02:31:19;;;;;;;20.88;6.00;;;-4.10;99.90;;;;;;5019587;28;20025;-85
2021/12/22 02:33:48;;;;;;;16.63;5.75;;;-4.00;99.90;;;;;;5052271;28;20021;-85
2021/12/22 02:38:48;;;;;;;19.20;7.10;;;-4.00;99.90;;;;;;5044579;28;20116;-86
2021/12/22 02:41:16;;;;;;;12.57;5.30;;;-4.00;99.90;;;;;;5030374;28;20592;-86
2021/12/22 02:43:47;;;;;;;16.58;6.28;;;-4.00;99.90;;;;;;5049908;28;20263;-86
2021/12/22 02:46:17;;;;;;;18.48;6.50;;;-4.00;99.90;;;;;;5050932;28;20409;-87
2021/12/22 02:48:44;;;;;;;17.63;7.40;;;-3.90;99.90;;;;;;5054113;22;20127;-87
2021/12/22 02:51:10;;;;;;;16.30;7.05;;;-3.90;99.90;;;;;;5083136;28;20491;-87
2021/12/22 02:54:22;;;;;;;17.13;6.80;;;-3.90;99.90;;;;;;5061945;28;20345;-88
2021/12/22 02:57:21;;;;;;;16.88;6.50;;;-3.90;99.90;;;;;;5078710;28;20040;-87
2021/12/22 03:04:25;;;;;;;22.20;8.43;;;-3.90;99.90;;;;;;5088678;28;20107;-88
2021/12/22 03:07:10;;;;;;;23.60;8.77;;;-3.90;99.90;;;;;;5055709;28;20041;-88
2021/12/22 03:09:37;;;;;;;16.25;8.15;;;-4.00;99.90;;;;;;5078555;28;20029;-86
2021/12/22 03:12:05;;;;;;;17.48;7.93;;;-4.00;99.90;;;;;;5075387;28;20470;-88
2021/12/22 03:14:32;;;;;;;21.58;7.82;;;-4.10;99.90;;;;;;5073061;28;20030;-88
2021/12/22 03:16:58;;;;;;;16.92;7.50;;;-4.00;99.90;;;;;;5073987;28;20020;-86
2021/12/22 03:19:28;;;;;;;21.95;8.32;;;-4.00;99.90;;;;;;5045795;28;20438;-87
2021/12/22 03:22:00;;;;;;;21.90;8.07;;;-4.00;99.90;;;;;;5060984;28;20024;-87
2021/12/22 03:24:31;;;;;;;18.38;7.93;;;-4.00;99.90;;;;;;5073269;28;20025;-88
2021/12/22 03:26:59;;;;;;;20.50;9.13;;;-4.00;99.90;;;;;;5071279;28;20047;-87
2021/12/22 03:29:25;;;;;;;16.48;6.68;;;-4.00;99.90;;;;;;5044567;28;20029;-88
2021/12/22 03:31:51;;;;;;;19.08;7.38;;;-4.10;99.90;;;;;;5025139;28;20029;-87
2021/12/22 03:34:17;;;;;;;20.75;8.25;;;-4.10;99.90;;;;;;5040594;28;20497;-87
2021/12/22 03:36:43;;;;;;;19.33;7.75;;;-4.10;99.90;;;;;;5064795;28;20069;-87
2021/12/22 03:39:12;;;;;;;19.67;7.68;;;-4.10;99.90;;;;;;5064701;28;20495;-87
2021/12/22 03:41:39;;;;;;;23.60;8.95;;;-4.10;99.90;;;;;;5062361;28;20115;-88
2021/12/22 03:44:07;;;;;;;22.48;8.70;;;-4.20;99.90;;;;;;5038739;28;20064;-87
2021/12/22 03:46:33;;;;;;;24.10;8.57;;;-4.20;99.90;;;;;;5036046;28;20123;-87
2021/12/22 03:49:03;;;;;;;24.70;8.23;;;-4.20;99.90;;;;;;5058173;28;20503;-87
2021/12/22 03:51:28;;;;;;;22.52;8.75;;;-4.20;99.90;;;;;;5049720;28;20032;-87
2021/12/22 03:53:54;;;;;;;19.33;9.20;;;-4.20;99.90;;;;;;5062926;28;20039;-87
2021/12/22 03:56:21;;;;;;;23.25;8.40;;;-4.20;99.90;;;;;;5050957;28;20029;-87
2021/12/22 03:58:47;;;;;;;15.80;8.15;;;-4.20;99.90;;;;;;5053603;28;20029;-87
2021/12/22 04:01:13;;;;;;;32.88;8.32;;;-4.20;99.90;;;;;;5035980;28;20043;-87
2021/12/22 04:03:41;;;;;;;20.63;7.60;;;-4.20;99.90;;;;;;5037437;28;20028;-87
2021/12/22 04:06:07;;;;;;;23.52;9.13;;;-4.20;99.90;;;;;;5034764;28;20191;-87
2021/12/22 04:08:33;;;;;;;21.77;8.57;;;-4.20;99.90;;;;;;5055612;28;20494;-87
2021/12/22 04:10:58;;;;;;;17.77;8.18;;;-4.20;99.90;;;;;;5052397;28;20396;-87
2021/12/22 04:13:24;;;;;;;27.23;8.48;;;-4.30;99.90;;;;;;5052308;28;20033;-87
2021/12/22 04:15:50;;;;;;;21.15;8.48;;;-4.30;99.90;;;;;;5011579;28;20041;-87
2021/12/22 04:18:17;;;;;;;17.10;7.00;;;-4.30;99.90;;;;;;5028709;28;20064;-87
2021/12/22 04:20:43;;;;;;;23.83;9.20;;;-4.40;99.90;;;;;;5019575;28;20037;-87
2021/12/22 04:23:09;;;;;;;27.00;9.98;;;-4.40;99.90;;;;;;5070536;28;20039;-87
2021/12/22 04:25:36;;;;;;;23.98;9.60;;;-4.40;99.90;;;;;;5049879;28;20043;-87
2021/12/22 04:28:06;;;;;;;19.90;7.90;;;-4.40;99.90;;;;;;5069584;28;20048;-87
2021/12/22 04:30:33;;;;;;;27.55;10.38;;;-4.40;99.90;;;;;;5046838;28;20115;-86
2021/12/22 04:33:00;;;;;;;27.45;9.73;;;-4.40;99.90;;;;;;5064722;28;20047;-87
2021/12/22 04:35:25;;;;;;;28.67;9.43;;;-4.40;99.90;;;;;;5032518;28;20068;-87
2021/12/22 04:37:51;;;;;;;26.60;9.65;;;-4.40;99.90;;;;;;5035254;28;20538;-87
2021/12/22 04:40:18;;;;;;;29.42;10.05;;;-4.40;99.90;;;;;;5040950;28;20029;-87
2021/12/22 04:42:44;;;;;;;24.63;9.48;;;-4.30;99.90;;;;;;5036720;28;20127;-87
2021/12/22 04:45:11;;;;;;;24.63;8.80;;;-4.30;99.90;;;;;;5069705;28;20024;-87
2021/12/22 04:47:38;;;;;;;32.67;10.15;;;-4.40;99.90;;;;;;5035161;28;20511;-87
2021/12/22 04:50:10;;;;;;;25.88;9.98;;;-4.40;99.90;;;;;;5057382;28;20029;-87
2021/12/22 04:52:44;;;;;;;24.17;9.23;;;-4.40;99.90;;;;;;5048505;28;20499;-87
2021/12/22 04:55:09;;;;;;;22.38;9.23;;;-4.40;99.90;;;;;;5020758;28;20061;-87
2021/12/22 04:57:35;;;;;;;22.60;10.30;;;-4.50;99.90;;;;;;5061164;28;20404;-87
2021/12/22 05:00:07;;;;;;;21.50;9.63;;;-4.50;99.90;;;;;;5035311;28;20054;-88
2021/12/22 05:02:32;;;;;;;26.23;9.32;;;-4.60;99.90;;;;;;5047390;28;20075;-87
2021/12/22 05:04:58;;;;;;;29.33;9.07;;;-4.60;99.90;;;;;;5038678;28;20071;-87
2021/12/22 05:07:24;;;;;;;27.98;9.73;;;-4.60;99.90;;;;;;5075027;28;20068;-87
2021/12/22 05:09:49;;;;;;;21.88;9.30;;;-4.60;99.90;;;;;;5018225;28;20064;-87
2021/12/22 05:12:15;;;;;;;20.63;9.60;;;-4.60;99.90;;;;;;5054033;28;20403;-87
2021/12/22 05:14:44;;;;;;;21.90;8.43;;;-4.60;99.90;;;;;;5058524;28;20043;-87
2021/12/22 05:17:18;;;;;;;24.30;9.02;;;-4.60;99.90;;;;;;5040036;28;20052;-87
2021/12/22 05:19:43;;;;;;;29.95;11.02;;;-4.60;99.90;;;;;;5068104;28;20034;-87
2021/12/22 05:22:09;;;;;;;24.23;8.93;;;-4.70;99.90;;;;;;5058916;28;20029;-87
2021/12/22 05:24:35;;;;;;;31.13;11.25;;;-4.70;99.90;;;;;;5060626;28;20428;-87
2021/12/22 05:27:00;;;;;;;23.15;9.63;;;-4.70;99.90;;;;;;5056396;28;20043;-87
2021/12/22 05:29:26;;;;;;;28.83;9.18;;;-4.70;99.90;;;;;;5084730;28;20463;-88
2021/12/22 05:31:54;;;;;;;32.00;11.57;;;-4.70;99.90;;;;;;5057627;28;20028;-87
2021/12/22 05:34:20;;;;;;;30.73;11.10;;;-4.70;99.90;;;;;;5039161;28;20033;-87
2021/12/22 05:36:46;;;;;;;26.25;10.15;;;-4.70;99.90;;;;;;5080933;28;20089;-87
2021/12/22 05:39:12;;;;;;;25.95;10.57;;;-4.70;99.90;;;;;;5069796;28;20024;-87
2021/12/22 05:41:38;;;;;;;28.70;8.77;;;-4.70;99.90;;;;;;5037093;28;20051;-87
2021/12/22 05:44:04;;;;;;;27.35;11.20;;;-4.70;99.90;;;;;;5053751;28;20035;-87
2021/12/22 05:46:30;;;;;;;30.48;10.90;;;-4.70;99.90;;;;;;5043073;28;20037;-87
2021/12/22 05:48:56;;;;;;;25.75;10.55;;;-4.70;99.90;;;;;;5038434;28;20036;-87
2021/12/22 05:51:22;;;;;;;30.08;10.75;;;-4.80;99.90;;;;;;5036297;28;20029;-87
2021/12/22 05:53:48;;;;;;;31.45;10.52;;;-4.80;99.90;;;;;;5035234;28;20102;-87
2021/12/22 05:56:14;;;;;;;24.63;10.00;;;-4.80;99.90;;;;;;5041071;28;20073;-86
2021/12/22 05:58:39;;;;;;;27.38;10.80;;;-4.80;99.90;;;;;;5056550;28;20028;-87
2021/12/22 06:01:05;;;;;;;23.27;9.48;;;-4.80;99.90;;;;;;5072060;28;20560;-87
2021/12/22 06:03:30;;;;;;;30.33;10.45;;;-4.80;99.90;;;;;;5057930;28;20389;-87
2021/12/22 06:05:56;;;;;;;29.17;10.60;;;-4.80;99.90;;;;;;5050754;28;20507;-87
2021/12/22 06:08:22;;;;;;;31.42;11.48;;;-4.80;99.90;;;;;;5038077;28;20116;-87
2021/12/22 06:10:47;;;;;;;24.52;10.57;;;-4.80;99.90;;;;;;5030305;28;20504;-87
2021/12/22 06:13:13;;;;;;;30.20;9.98;;;-4.80;99.90;;;;;;5038520;28;20454;-87
2021/12/22 06:15:40;;;;;;;30.15;10.93;;;-4.80;99.90;;;;;;5036034;28;20401;-86
2021/12/22 06:18:06;;;;;;;21.85;9.60;;;-4.80;99.90;;;;;;5041230;28;20614;-87
2021/12/22 06:20:32;;;;;;;21.58;9.43;;;-4.90;99.90;;;;;;5044798;28;20043;-87
2021/12/22 06:22:58;;;;;;;31.75;10.80;;;-4.90;99.90;;;;;;5026087;28;20097;-87
2021/12/22 06:25:26;;;;;;;28.00;10.13;;;-4.90;99.90;;;;;;5037724;28;20041;-87
2021/12/22 06:27:52;;;;;;;28.80;9.77;;;-4.90;99.90;;;;;;5045978;28;20117;-87
2021/12/22 06:30:20;;;;;;;30.80;10.45;;;-4.90;99.90;;;;;;5070736;28;20029;-87
2021/12/22 06:32:47;;;;;;;24.98;9.98;;;-4.90;99.90;;;;;;5064008;28;20056;-87
2021/12/22 06:35:14;;;;;;;26.27;9.85;;;-5.00;99.90;;;;;;5043247;28;20032;-87
2021/12/22 06:37:45;;;;;;;23.20;9.32;;;-5.00;99.90;;;;;;5067258;28;20237;-87
2021/12/22 06:40:11;;;;;;;24.77;10.93;;;-5.00;99.90;;;;;;5054901;28;20078;-87
2021/12/22 06:42:38;;;;;;;25.55;10.18;;;-5.00;99.90;;;;;;5057908;28;20550;-86
2021/12/22 06:45:06;;;;;;;34.88;11.20;;;-5.00;99.90;;;;;;5054974;28;20618;-87
2021/12/22 06:47:31;;;;;;;36.00;10.98;;;-4.90;99.90;;;;;;5040196;28;20040;-86
2021/12/22 06:49:57;;;;;;;28.55;10.48;;;-4.90;99.90;;;;;;5035502;28;20608;-87
2021/12/22 06:52:23;;;;;;;31.83;11.80;;;-4.90;99.90;;;;;;5039256;28;20102;-87
2021/12/22 06:54:49;;;;;;;29.20;11.60;;;-4.90;99.90;;;;;;5046146;28;20369;-87
2021/12/22 06:57:19;;;;;;;23.60;9.85;;;-4.90;99.90;;;;;;5040883;28;20528;-87
2021/12/22 06:59:45;;;;;;;28.85;10.75;;;-4.90;99.90;;;;;;5070637;28;20035;-87
2021/12/22 07:02:10;;;;;;;28.02;11.55;;;-4.90;99.90;;;;;;5047376;28;20036;-88
2021/12/22 07:04:36;;;;;;;34.45;13.00;;;-4.90;99.90;;;;;;5038264;28;20040;-87
2021/12/22 07:07:05;;;;;;;31.00;12.55;;;-4.90;99.90;;;;;;5027207;28;20037;-88
2021/12/22 07:09:31;;;;;;;30.50;9.82;;;-4.90;99.90;;;;;;5037843;28;20028;-88
2021/12/22 07:11:57;;;;;;;28.65;11.27;;;-4.90;99.90;;;;;;5020501;28;20094;-87
2021/12/22 07:14:22;;;;;;;28.75;11.43;;;-4.80;99.90;;;;;;5037679;28;20024;-87
2021/12/22 07:16:48;;;;;;;30.02;11.52;;;-4.80;99.90;;;;;;5018147;28;20033;-88
2021/12/22 07:19:14;;;;;;;25.75;11.73;;;-4.80;99.90;;;;;;5040083;28;20563;-87
2021/12/22 07:21:39;;;;;;;24.15;11.00;;;-4.80;99.90;;;;;;5073203;28;20031;-88
2021/12/22 07:24:06;;;;;;;27.65;11.23;;;-4.80;99.90;;;;;;5038368;28;20120;-87
2021/12/22 07:26:32;;;;;;;31.13;11.98;;;-4.80;99.90;;;;;;5052644;28;20458;-87
2021/12/22 07:28:58;;;;;;;29.92;12.32;;;-4.80;99.90;;;;;;5052797;28;20523;-87
2021/12/22 07:31:24;;;;;;;34.35;14.55;;;-4.80;99.90;;;;;;5038383;28;20056;-88
2021/12/22 07:34:00;;;;;;;31.05;11.98;;;-4.80;99.90;;;;;;5069036;28;20031;-87
2021/12/22 07:36:26;;;;;;;31.88;12.48;;;-4.80;99.90;;;;;;5055525;28;20115;-88
2021/12/22 07:39:03;;;;;;;24.40;11.02;;;-4.70;99.90;;;;;;5055992;28;20128;-87
2021/12/22 07:41:30;;;;;;;34.17;13.73;;;-4.70;99.90;;;;;;5071892;28;20026;-88
2021/12/22 07:43:56;;;;;;;31.00;13.20;;;-4.70;99.90;;;;;;5075370;28;20027;-87
2021/12/22 07:46:22;;;;;;;35.83;12.65;;;-4.70;99.90;;;;;;5046908;28;20024;-87
2021/12/22 07:48:48;;;;;;;26.13;11.32;;;-4.60;99.90;;;;;;5061564;28;20028;-87
2021/12/22 07:51:14;;;;;;;30.13;12.57;;;-4.60;99.90;;;;;;5036001;28;20025;-87
2021/12/22 07:53:41;;;;;;;30.52;12.73;;;-4.60;99.90;;;;;;5019744;28;20036;-87
2021/12/22 07:56:07;;;;;;;31.95;13.07;;;-4.60;99.90;;;;;;5035289;28;20056;-89
2021/12/22 07:58:33;;;;;;;34.00;15.50;;;-4.60;99.90;;;;;;5057871;28;20441;-89
2021/12/22 08:00:58;;;;;;;34.28;13.25;;;-4.60;99.90;;;;;;5058655;28;20031;-89
2021/12/22 08:03:27;;;;;;;36.28;11.23;;;-4.50;99.90;;;;;;5057964;28;20028;-89
2021/12/22 08:05:53;;;;;;;34.78;13.50;;;-4.50;99.90;;;;;;5069380;28;20544;-90
2021/12/22 08:08:19;;;;;;;27.75;12.48;;;-4.40;99.90;;;;;;5055509;28;20488;-90
2021/12/22 08:10:47;;;;;;;37.10;12.93;;;-4.40;99.90;;;;;;5056449;28;20031;-90
2021/12/22 08:13:13;;;;;;;28.15;12.05;;;-4.30;99.90;;;;;;5052573;28;20039;-90
2021/12/22 08:15:39;;;;;;;35.17;13.15;;;-4.20;99.90;;;;;;5043572;28;20355;-90
2021/12/22 08:18:05;;;;;;;31.83;12.18;;;-4.20;99.90;;;;;;5062712;28;20024;-90
2021/12/22 08:20:33;;;;;;;32.60;11.60;;;-4.20;99.90;;;;;;5072468;28;20032;-90
2021/12/22 08:23:02;;;;;;;30.42;12.38;;;-4.10;99.90;;;;;;5073062;28;20370;-89
2021/12/22 08:25:28;;;;;;;36.95;13.05;;;-4.10;99.90;;;;;;5072508;28;20039;-92
2021/12/22 08:27:54;;;;;;;37.72;12.93;;;-4.00;99.90;;;;;;5056068;28;20028;-89
2021/12/22 08:30:20;;;;;;;30.23;12.65;;;-4.00;99.90;;;;;;5072480;28;20115;-90
2021/12/22 08:32:46;;;;;;;36.88;13.43;;;-3.90;99.90;;;;;;5067376;28;20070;-88
2021/12/22 08:35:15;;;;;;;34.72;14.35;;;-3.90;99.90;;;;;;5036183;28;20433;-90
2021/12/22 08:40:26;;;;;;;29.58;11.35;;;-3.80;99.90;;;;;;5091029;28;20055;-89
2021/12/22 08:42:55;;;;;;;29.95;12.70;;;-3.70;99.90;;;;;;5072839;28;20024;-90
2021/12/22 08:45:20;;;;;;;41.28;12.50;;;-3.70;99.90;;;;;;5055804;28;20122;-89
2021/12/22 08:47:46;;;;;;;31.88;13.45;;;-3.60;99.90;;;;;;5039090;28;20548;-90
2021/12/22 08:50:14;;;;;;;33.03;13.02;;;-3.50;99.90;;;;;;5070152;28;20051;-88
2021/12/22 08:52:40;;;;;;;34.78;14.02;;;-3.50;99.90;;;;;;5053296;28;20028;-88
2021/12/22 08:55:07;;;;;;;29.25;12.27;;;-3.40;99.90;;;;;;5054677;28;20038;-88
2021/12/22 08:57:34;;;;;;;26.27;10.82;;;-3.40;99.90;;;;;;5069773;28;20027;-87
2021/12/22 09:00:00;;;;;;;36.90;12.63;;;-3.30;99.90;;;;;;5052783;28;20045;-88
2021/12/22 09:02:26;;;;;;;27.90;11.48;;;-3.30;99.90;;;;;;5022702;28;20060;-88
2021/12/22 09:04:52;;;;;;;29.80;11.98;;;-3.20;99.90;;;;;;5058703;28;20437;-88
2021/12/22 09:07:17;;;;;;;32.70;12.85;;;-3.20;99.90;;;;;;5074509;28;20062;-88
2021/12/22 09:09:46;;;;;;;30.05;12.20;;;-3.10;99.90;;;;;;5078607;28;20032;-88
2021/12/22 09:12:11;;;;;;;29.17;10.98;;;-3.10;99.90;;;;;;5045191;28;20028;-88
2021/12/22 09:14:37;;;;;;;38.50;12.48;;;-3.10;99.90;;;;;;5033474;28;20039;-88
2021/12/22 09:17:03;;;;;;;30.30;13.25;;;-3.00;99.90;;;;;;5035975;28;20490;-88
2021/12/22 09:19:29;;;;;;;29.38;12.20;;;-3.00;99.90;;;;;;5054100;28;20025;-88
2021/12/22 09:21:57;;;;;;;29.45;12.13;;;-2.90;99.90;;;;;;5061986;28;20028;-88
2021/12/22 09:24:27;;;;;;;32.25;13.82;;;-2.90;99.90;;;;;;5057728;28;20109;-88
2021/12/22 09:26:53;;;;;;;34.17;12.07;;;-2.80;99.90;;;;;;5072617;28;20033;-88
2021/12/22 09:29:19;;;;;;;34.92;11.85;;;-2.80;99.90;;;;;;5053564;28;20215;-88
2021/12/22 09:31:44;;;;;;;30.50;12.15;;;-2.70;99.90;;;;;;5036849;28;20110;-88
2021/12/22 09:34:10;;;;;;;32.42;13.35;;;-2.70;99.90;;;;;;5052550;28;20025;-89
2021/12/22 09:36:39;;;;;;;30.60;12.43;;;-2.60;99.90;;;;;;5035088;28;20508;-88
2021/12/22 09:39:05;;;;;;;31.55;13.10;;;-2.60;99.90;;;;;;5054285;28;20036;-88
2021/12/22 09:41:34;;;;;;;32.70;13.10;;;-2.60;99.90;;;;;;5072585;28;20024;-88
2021/12/22 09:44:04;;;;;;;28.27;13.10;;;-2.50;99.90;;;;;;5038594;28;20036;-88
2021/12/22 09:46:30;;;;;;;36.47;13.32;;;-2.50;99.90;;;;;;5051450;28;20056;-88
2021/12/22 09:49:18;;;;;;;31.70;12.57;;;-2.40;99.90;;;;;;5055799;28;20129;-88
2021/12/22 09:54:28;;;;;;;37.65;13.20;;;-2.30;99.90;;;;;;5078038;28;20468;-88
2021/12/22 09:56:54;;;;;;;30.02;13.18;;;-2.20;99.90;;;;;;5056719;28;20040;-88
2021/12/22 09:59:20;;;;;;;30.45;11.55;;;-2.20;99.90;;;;;;5076907;28;20031;-88
2021/12/22 10:01:46;;;;;;;30.52;12.10;;;-2.10;99.90;;;;;;5060902;28;20028;-88
2021/12/22 10:04:16;;;;;;;32.92;13.35;;;-2.10;99.90;;;;;;5041591;28;20381;-88
2021/12/22 10:06:42;;;;;;;28.50;12.40;;;-2.10;99.90;;;;;;5046109;28;20055;-88
2021/12/22 10:09:08;;;;;;;35.88;13.02;;;-2.00;99.90;;;;;;5075790;28;20458;-88
2021/12/22 10:11:41;;;;;;;27.38;11.32;;;-2.00;99.90;;;;;;5059802;28;20028;-88
2021/12/22 10:14:21;;;;;;;30.27;12.18;;;-2.00;99.90;;;;;;5059946;28;20032;-88
2021/12/22 10:16:51;;;;;;;29.63;11.55;;;-2.00;99.90;;;;;;5073540;28;20069;-88
2021/12/22 10:19:18;;;;;;;;;;;-1.90;99.90;;;;;;5075434;28;20411;-88
2021/12/22 10:22:03;;;;;;;24.67;9.73;;;-1.80;99.90;;;;;;5069745;28;19946;-88
2021/12/22 10:24:41;;;;;;;26.90;10.35;;;-1.80;99.90;;;;;;5054678;28;20505;-88
2021/12/22 10:27:26;;;;;;;25.55;10.93;;;-1.80;99.90;;;;;;5072723;28;20025;-87
2021/12/22 10:29:52;;;;;;;30.88;11.32;;;-1.70;99.90;;;;;;5038860;28;20686;-88
2021/12/22 10:32:18;;;;;;;29.80;12.68;;;-1.70;99.90;;;;;;5055333;28;20123;-88
2021/12/22 10:34:59;;;;;;;31.50;11.68;;;-1.60;99.90;;;;;;5040316;28;20028;-88
2021/12/22 10:37:38;;;;;;;31.10;11.43;;;-1.60;99.90;;;;;;5048682;28;20077;-87
2021/12/22 10:40:25;;;;;;;38.75;12.73;;;-1.50;99.90;;;;;;5071165;28;20036;-87
2021/12/22 10:42:51;;;;;;;28.02;12.02;;;-1.50;99.90;;;;;;5072128;28;20396;-88
2021/12/22 10:45:18;;;;;;;33.55;12.43;;;-1.40;99.90;;;;;;5054308;28;20378;-87
2021/12/22 10:50:58;;;;;;;31.42;11.80;;;-1.30;99.90;;;;;;5063685;28;20058;-87
2021/12/22 10:53:26;;;;;;;26.08;10.45;;;-1.30;99.90;;;;;;5074457;28;20053;-87
2021/12/22 10:55:55;;;;;;;23.63;10.93;;;-1.20;99.90;;;;;;5062585;28;20021;-88
2021/12/22 10:58:26;;;;;;;25.23;11.23;;;-1.20;99.90;;;;;;5036946;28;20114;-87
2021/12/22 11:01:17;;;;;;;35.15;11.60;;;-1.10;99.90;;;;;;5054403;28;20032;-88
2021/12/22 11:04:02;;;;;;;25.60;9.57;;;-1.10;99.90;;;;;;5028003;28;20047;-88
2021/12/22 11:06:30;;;;;;;24.17;10.95;;;-1.10;99.90;;;;;;5072511;28;20501;-89
2021/12/22 11:09:16;;;;;;;25.88;10.82;;;-1.00;99.90;;;;;;5059162;28;20028;-88
2021/12/22 11:11:54;;;;;;;22.35;10.27;;;-1.00;99.90;;;;;;5056396;28;20059;-88
2021/12/22 11:14:25;;;;;;;26.42;11.15;;;-1.00;99.90;;;;;;5068462;28;20012;-86
2021/12/22 11:16:59;;;;;;;21.77;9.85;;;-1.00;99.90;;;;;;5035825;28;20036;-88
2021/12/22 11:19:28;;;;;;;23.63;9.50;;;-0.90;99.90;;;;;;5033490;28;20033;-88
2021/12/22 11:22:11;;;;;;;22.75;9.73;;;-0.90;99.90;;;;;;5061849;28;20476;-88
2021/12/22 11:24:52;;;;;;;24.80;10.13;;;-0.90;99.90;;;;;;5063580;28;20117;-88
2021/12/22 11:27:18;;;;;;;22.15;9.90;;;-0.80;99.90;;;;;;5033704;28;20029;-88
2021/12/22 11:29:52;;;;;;;20.55;9.88;;;-0.80;99.90;;;;;;5051593;28;20029;-88
2021/12/22 11:32:20;;;;;;;26.50;10.52;;;-0.70;99.90;;;;;;5036861;28;20055;-88
2021/12/22 11:34:52;;;;;;;27.13;10.32;;;-0.70;99.90;;;;;;5035679;28;20029;-88
2021/12/22 11:37:19;;;;;;;23.90;10.88;;;-0.60;99.90;;;;;;5039706;28;20032;-88
2021/12/22 11:39:46;;;;;;;25.92;10.48;;;-0.50;99.90;;;;;;5039243;28;20051;-88
2021/12/22 11:42:14;;;;;;;21.55;9.10;;;-0.50;99.90;;;;;;5053958;28;20094;-88
2021/12/22 11:44:44;;;;;;;23.13;10.13;;;-0.40;99.90;;;;;;5070019;28;20067;-88
2021/12/22 11:47:11;;;;;;;19.98;8.88;;;-0.30;99.90;;;;;;5065545;28;20035;-88
2021/12/22 11:49:58;;;;;;;26.23;9.65;;;-0.30;99.90;;;;;;5062929;28;20025;-88
2021/12/22 11:52:43;;;;;;;23.17;9.98;;;-0.20;99.90;;;;;;5055759;28;20013;-88
2021/12/22 11:55:13;;;;;;;21.10;10.18;;;-0.20;99.90;;;;;;5052255;28;20024;-88
2021/12/22 11:57:40;;;;;;;22.42;9.25;;;-0.10;99.90;;;;;;5052578;28;20047;-87
2021/12/22 12:00:30;;;;;;;22.58;9.90;;;-0.10;99.90;;;;;;5032093;28;20063;-88
2021/12/22 12:02:59;;;;;;;21.77;9.30;;;-0.10;99.90;;;;;;5022135;28;20037;-88
2021/12/22 12:05:30;;;;;;;23.05;9.80;;;-0.10;99.90;;;;;;5025384;28;20036;-88
2021/12/22 12:08:07;;;;;;;24.38;9.75;;;0.00;99.90;;;;;;5041563;28;20117;-87
2021/12/22 12:10:40;;;;;;;19.67;8.70;;;0.00;99.90;;;;;;5072425;28;20507;-89
2021/12/22 12:13:45;;;;;;;25.88;9.68;;;0.00;99.90;;;;;;5072775;28;20028;-88
2021/12/22 12:22:11;;;;;;;24.98;9.27;;;0.20;99.90;;;;;;5075756;28;20086;-88
2021/12/22 12:24:59;;;;;;;24.20;10.02;;;0.20;99.90;;;;;;5089988;28;20031;-87
2021/12/22 12:27:41;;;;;;;26.60;9.82;;;0.30;99.90;;;;;;5057154;28;20032;-88
2021/12/22 12:30:15;;;;;;;26.40;10.02;;;0.30;99.90;;;;;;5072127;28;20429;-88
2021/12/22 12:32:40;;;;;;;22.23;9.20;;;0.40;99.90;;;;;;5071921;28;20495;-88
2021/12/22 12:35:27;;;;;;;20.45;9.52;;;0.40;99.90;;;;;;5070126;28;20059;-88
2021/12/22 12:38:07;;;;;;;23.33;8.90;;;0.50;99.90;;;;;;5063905;28;20449;-88
2021/12/22 12:40:52;;;;;;;;;;;0.60;99.90;;;;;;5052512;28;20443;-85
2021/12/22 12:43:17;;;;;;;21.42;8.13;;;0.60;99.90;;;;;;5052362;28;19904;-88
2021/12/22 12:45:45;;;;;;;22.88;9.05;;;0.60;99.90;;;;;;5067702;28;20062;-87
2021/12/22 12:48:26;;;;;;;23.80;9.02;;;0.50;99.90;;;;;;5071380;28;20035;-87
2021/12/22 12:51:15;;;;;;;21.83;8.75;;;0.60;99.90;;;;;;5055466;28;20488;-88
2021/12/22 12:53:43;;;;;;;21.02;9.57;;;0.60;99.90;;;;;;5033229;28;20033;-88
2021/12/22 12:56:10;;;;;;;25.15;8.98;;;0.60;99.90;;;;;;5031519;28;20117;-88
2021/12/22 12:58:55;;;;;;;19.60;9.38;;;0.50;99.90;;;;;;5051594;28;20408;-88
2021/12/22 13:01:46;;;;;;;20.27;9.40;;;0.60;99.90;;;;;;5036763;28;20047;-88
2021/12/22 13:04:29;;;;;;;21.50;9.18;;;0.50;99.90;;;;;;5046342;28;20408;-87
2021/12/22 13:07:00;;;;;;;20.45;9.02;;;0.50;99.90;;;;;;5035219;28;20021;-89
2021/12/22 13:09:29;;;;;;;23.15;8.70;;;0.60;99.90;;;;;;5032055;28;20027;-87